sensor_id;sensor_type;location;lat;lon;timestamp;P1;durP1;ratioP1;P2;durP2;ratioP2
15194;SDS011;7698;42.478;23.756;2023-10-13T00:00:23;26.98;;;24.88;;
15194;SDS011;7698;42.478;23.756;2023-10-13T00:02:55;31.25;;;28.88;;
15194;SDS011;7698;42.478;23.756;2023-10-13T00:05:25;28.67;;;26.50;;
15194;SDS011;7698;42.478;23.756;2023-10-13T00:07:52;28.25;;;26.00;;
15194;SDS011;7698;42.478;23.756;2023-10-13T00:10:18;32.22;;;29.77;;
15194;SDS011;7698;42.478;23.756;2023-10-13T00:12:46;29.17;;;26.92;;
15194;SDS011;7698;42.478;23.756;2023-10-13T00:15:15;31.67;;;29.27;;
15194;SDS011;7698;42.478;23.756;2023-10-13T00:17:46;28.50;;;26.40;;
15194;SDS011;7698;42.478;23.756;2023-10-13T00:20:12;27.90;;;25.80;;
15194;SDS011;7698;42.478;23.756;2023-10-13T00:22:56;27.63;;;25.48;;
15194;SDS011;7698;42.478;23.756;2023-10-13T00:25:23;30.90;;;28.42;;
15194;SDS011;7698;42.478;23.756;2023-10-13T00:27:52;22.55;;;20.95;;
15194;SDS011;7698;42.478;23.756;2023-10-13T00:30:20;21.15;;;19.55;;
15194;SDS011;7698;42.478;23.756;2023-10-13T00:32:59;18.25;;;16.75;;
15194;SDS011;7698;42.478;23.756;2023-10-13T00:35:26;15.27;;;14.05;;
15194;SDS011;7698;42.478;23.756;2023-10-13T00:37:54;13.10;;;12.10;;
15194;SDS011;7698;42.478;23.756;2023-10-13T00:40:22;9.55;;;8.85;;
15194;SDS011;7698;42.478;23.756;2023-10-13T00:43:03;8.38;;;7.68;;
15194;SDS011;7698;42.478;23.756;2023-10-13T00:45:51;7.90;;;7.20;;
15194;SDS011;7698;42.478;23.756;2023-10-13T00:48:22;8.48;;;7.82;;
15194;SDS011;7698;42.478;23.756;2023-10-13T00:50:54;7.18;;;6.63;;
15194;SDS011;7698;42.478;23.756;2023-10-13T00:53:21;7.47;;;6.75;;
15194;SDS011;7698;42.478;23.756;2023-10-13T00:55:48;8.95;;;8.25;;
15194;SDS011;7698;42.478;23.756;2023-10-13T00:58:14;8.52;;;7.78;;
15194;SDS011;7698;42.478;23.756;2023-10-13T01:00:47;15.00;;;13.70;;
15194;SDS011;7698;42.478;23.756;2023-10-13T01:03:13;18.02;;;16.52;;
15194;SDS011;7698;42.478;23.756;2023-10-13T01:05:41;24.23;;;22.27;;
15194;SDS011;7698;42.478;23.756;2023-10-13T01:08:07;21.17;;;19.48;;
15194;SDS011;7698;42.478;23.756;2023-10-13T01:10:36;23.73;;;21.80;;
15194;SDS011;7698;42.478;23.756;2023-10-13T01:13:02;22.35;;;20.55;;
15194;SDS011;7698;42.478;23.756;2023-10-13T01:15:29;18.50;;;17.00;;
15194;SDS011;7698;42.478;23.756;2023-10-13T01:18:05;17.27;;;15.88;;
15194;SDS011;7698;42.478;23.756;2023-10-13T01:20:36;17.45;;;16.08;;
15194;SDS011;7698;42.478;23.756;2023-10-13T01:23:10;15.50;;;14.30;;
15194;SDS011;7698;42.478;23.756;2023-10-13T01:25:43;14.32;;;13.15;;
15194;SDS011;7698;42.478;23.756;2023-10-13T01:28:09;12.60;;;11.63;;
15194;SDS011;7698;42.478;23.756;2023-10-13T01:30:35;12.20;;;11.20;;
15194;SDS011;7698;42.478;23.756;2023-10-13T01:33:03;11.50;;;10.65;;
15194;SDS011;7698;42.478;23.756;2023-10-13T01:35:30;11.95;;;11.05;;
15194;SDS011;7698;42.478;23.756;2023-10-13T01:38:13;11.07;;;10.25;;
15194;SDS011;7698;42.478;23.756;2023-10-13T01:40:40;13.15;;;12.15;;
15194;SDS011;7698;42.478;23.756;2023-10-13T01:43:08;13.45;;;12.30;;
15194;SDS011;7698;42.478;23.756;2023-10-13T01:45:36;17.25;;;15.85;;
15194;SDS011;7698;42.478;23.756;2023-10-13T01:48:04;14.15;;;13.05;;
15194;SDS011;7698;42.478;23.756;2023-10-13T01:50:32;14.30;;;13.10;;
15194;SDS011;7698;42.478;23.756;2023-10-13T01:52:58;18.75;;;17.25;;
15194;SDS011;7698;42.478;23.756;2023-10-13T01:55:38;19.15;;;17.65;;
15194;SDS011;7698;42.478;23.756;2023-10-13T01:58:08;17.73;;;16.23;;
15194;SDS011;7698;42.478;23.756;2023-10-13T02:00:40;21.83;;;20.13;;
15194;SDS011;7698;42.478;23.756;2023-10-13T02:03:07;25.15;;;23.10;;
15194;SDS011;7698;42.478;23.756;2023-10-13T02:05:40;26.38;;;24.35;;
15194;SDS011;7698;42.478;23.756;2023-10-13T02:08:09;28.30;;;25.95;;
15194;SDS011;7698;42.478;23.756;2023-10-13T02:10:36;31.77;;;29.20;;
15194;SDS011;7698;42.478;23.756;2023-10-13T02:13:10;33.88;;;31.15;;
15194;SDS011;7698;42.478;23.756;2023-10-13T02:15:40;32.33;;;29.60;;
15194;SDS011;7698;42.478;23.756;2023-10-13T02:18:07;28.77;;;26.58;;
15194;SDS011;7698;42.478;23.756;2023-10-13T02:20:34;32.33;;;29.77;;
15194;SDS011;7698;42.478;23.756;2023-10-13T02:23:08;35.90;;;32.85;;
15194;SDS011;7698;42.478;23.756;2023-10-13T02:25:35;33.83;;;31.13;;
15194;SDS011;7698;42.478;23.756;2023-10-13T02:28:07;39.08;;;35.88;;
15194;SDS011;7698;42.478;23.756;2023-10-13T02:30:40;43.20;;;39.60;;
15194;SDS011;7698;42.478;23.756;2023-10-13T02:33:09;40.88;;;37.60;;
15194;SDS011;7698;42.478;23.756;2023-10-13T02:35:37;40.88;;;37.55;;
15194;SDS011;7698;42.478;23.756;2023-10-13T02:38:06;41.15;;;37.78;;
15194;SDS011;7698;42.478;23.756;2023-10-13T02:40:36;42.47;;;38.88;;
15194;SDS011;7698;42.478;23.756;2023-10-13T02:43:02;43.65;;;40.08;;
15194;SDS011;7698;42.478;23.756;2023-10-13T02:45:29;47.40;;;43.35;;
15194;SDS011;7698;42.478;23.756;2023-10-13T02:47:56;48.65;;;44.55;;
15194;SDS011;7698;42.478;23.756;2023-10-13T02:50:39;33.42;;;30.83;;
15194;SDS011;7698;42.478;23.756;2023-10-13T02:53:08;34.40;;;31.38;;
15194;SDS011;7698;42.478;23.756;2023-10-13T02:55:37;25.80;;;23.70;;
15194;SDS011;7698;42.478;23.756;2023-10-13T02:58:04;19.55;;;18.05;;
15194;SDS011;7698;42.478;23.756;2023-10-13T03:00:31;22.05;;;20.15;;
15194;SDS011;7698;42.478;23.756;2023-10-13T03:02:58;15.57;;;14.32;;
15194;SDS011;7698;42.478;23.756;2023-10-13T03:05:25;15.50;;;14.30;;
15194;SDS011;7698;42.478;23.756;2023-10-13T03:07:54;13.13;;;12.13;;
15194;SDS011;7698;42.478;23.756;2023-10-13T03:10:20;10.57;;;9.68;;
15194;SDS011;7698;42.478;23.756;2023-10-13T03:12:46;10.23;;;9.43;;
15194;SDS011;7698;42.478;23.756;2023-10-13T03:15:14;9.35;;;8.65;;
15194;SDS011;7698;42.478;23.756;2023-10-13T03:17:42;8.10;;;7.50;;
15194;SDS011;7698;42.478;23.756;2023-10-13T03:20:11;8.88;;;8.07;;
15194;SDS011;7698;42.478;23.756;2023-10-13T03:22:38;8.95;;;8.25;;
15194;SDS011;7698;42.478;23.756;2023-10-13T03:25:05;8.98;;;8.25;;
15194;SDS011;7698;42.478;23.756;2023-10-13T03:27:32;9.23;;;8.48;;
15194;SDS011;7698;42.478;23.756;2023-10-13T03:30:06;9.27;;;8.43;;
15194;SDS011;7698;42.478;23.756;2023-10-13T03:32:39;10.25;;;9.38;;
15194;SDS011;7698;42.478;23.756;2023-10-13T03:35:09;9.95;;;8.95;;
15194;SDS011;7698;42.478;23.756;2023-10-13T03:37:50;10.38;;;9.45;;
15194;SDS011;7698;42.478;23.756;2023-10-13T03:40:16;13.68;;;12.50;;
15194;SDS011;7698;42.478;23.756;2023-10-13T03:42:57;14.32;;;13.10;;
15194;SDS011;7698;42.478;23.756;2023-10-13T03:45:29;15.40;;;14.02;;
15194;SDS011;7698;42.478;23.756;2023-10-13T03:48:02;12.73;;;11.63;;
15194;SDS011;7698;42.478;23.756;2023-10-13T03:50:34;12.85;;;11.85;;
15194;SDS011;7698;42.478;23.756;2023-10-13T03:53:03;10.07;;;9.27;;
15194;SDS011;7698;42.478;23.756;2023-10-13T03:55:31;12.35;;;11.27;;
15194;SDS011;7698;42.478;23.756;2023-10-13T03:58:00;12.65;;;11.55;;
15194;SDS011;7698;42.478;23.756;2023-10-13T04:00:28;11.70;;;10.57;;
15194;SDS011;7698;42.478;23.756;2023-10-13T04:02:56;9.88;;;9.07;;
15194;SDS011;7698;42.478;23.756;2023-10-13T04:05:34;10.25;;;9.18;;
15194;SDS011;7698;42.478;23.756;2023-10-13T04:08:07;10.90;;;9.93;;
15194;SDS011;7698;42.478;23.756;2023-10-13T04:10:51;10.70;;;9.90;;
15194;SDS011;7698;42.478;23.756;2023-10-13T04:13:35;10.38;;;9.55;;
15194;SDS011;7698;42.478;23.756;2023-10-13T04:16:19;11.40;;;10.40;;
15194;SDS011;7698;42.478;23.756;2023-10-13T04:19:00;9.65;;;8.77;;
15194;SDS011;7698;42.478;23.756;2023-10-13T04:21:34;10.38;;;9.45;;
15194;SDS011;7698;42.478;23.756;2023-10-13T04:24:22;9.80;;;8.90;;
15194;SDS011;7698;42.478;23.756;2023-10-13T04:27:20;9.15;;;8.30;;
15194;SDS011;7698;42.478;23.756;2023-10-13T04:30:10;9.70;;;8.80;;
15194;SDS011;7698;42.478;23.756;2023-10-13T04:32:42;9.88;;;9.07;;
15194;SDS011;7698;42.478;23.756;2023-10-13T04:35:18;10.57;;;9.57;;
15194;SDS011;7698;42.478;23.756;2023-10-13T04:37:44;11.00;;;10.10;;
15194;SDS011;7698;42.478;23.756;2023-10-13T04:40:20;13.57;;;12.38;;
15194;SDS011;7698;42.478;23.756;2023-10-13T04:42:49;12.52;;;11.48;;
15194;SDS011;7698;42.478;23.756;2023-10-13T04:45:16;10.40;;;9.55;;
15194;SDS011;7698;42.478;23.756;2023-10-13T04:48:03;10.55;;;9.52;;
15194;SDS011;7698;42.478;23.756;2023-10-13T04:50:39;12.57;;;11.35;;
15194;SDS011;7698;42.478;23.756;2023-10-13T04:53:10;11.90;;;10.80;;
15194;SDS011;7698;42.478;23.756;2023-10-13T04:55:54;9.90;;;9.10;;
15194;SDS011;7698;42.478;23.756;2023-10-13T04:58:33;11.18;;;10.18;;
15194;SDS011;7698;42.478;23.756;2023-10-13T05:01:16;10.93;;;9.88;;
15194;SDS011;7698;42.478;23.756;2023-10-13T05:04:09;10.55;;;9.65;;
15194;SDS011;7698;42.478;23.756;2023-10-13T05:06:47;11.52;;;10.52;;
15194;SDS011;7698;42.478;23.756;2023-10-13T05:09:31;12.77;;;11.55;;
15194;SDS011;7698;42.478;23.756;2023-10-13T05:12:16;11.55;;;10.38;;
15194;SDS011;7698;42.478;23.756;2023-10-13T05:15:01;9.60;;;8.80;;
15194;SDS011;7698;42.478;23.756;2023-10-13T05:17:45;10.52;;;9.57;;
15194;SDS011;7698;42.478;23.756;2023-10-13T05:20:29;10.63;;;9.73;;
15194;SDS011;7698;42.478;23.756;2023-10-13T05:23:13;11.63;;;10.55;;
15194;SDS011;7698;42.478;23.756;2023-10-13T05:25:59;12.95;;;11.85;;
15194;SDS011;7698;42.478;23.756;2023-10-13T05:28:45;11.70;;;10.70;;
15194;SDS011;7698;42.478;23.756;2023-10-13T05:31:29;12.68;;;11.57;;
15194;SDS011;7698;42.478;23.756;2023-10-13T05:34:13;11.57;;;10.57;;
15194;SDS011;7698;42.478;23.756;2023-10-13T05:36:58;10.18;;;9.38;;
15194;SDS011;7698;42.478;23.756;2023-10-13T05:39:42;14.05;;;12.02;;
15194;SDS011;7698;42.478;23.756;2023-10-13T05:42:26;11.65;;;10.38;;
15194;SDS011;7698;42.478;23.756;2023-10-13T05:45:11;10.82;;;9.82;;
15194;SDS011;7698;42.478;23.756;2023-10-13T05:48:02;10.82;;;9.55;;
15194;SDS011;7698;42.478;23.756;2023-10-13T05:50:30;9.38;;;8.55;;
15194;SDS011;7698;42.478;23.756;2023-10-13T05:53:15;10.25;;;8.30;;
15194;SDS011;7698;42.478;23.756;2023-10-13T05:56:02;8.98;;;8.18;;
15194;SDS011;7698;42.478;23.756;2023-10-13T05:58:45;10.27;;;8.43;;
15194;SDS011;7698;42.478;23.756;2023-10-13T06:01:31;8.52;;;7.78;;
15194;SDS011;7698;42.478;23.756;2023-10-13T06:04:15;7.28;;;6.60;;
15194;SDS011;7698;42.478;23.756;2023-10-13T06:06:59;7.63;;;6.97;;
15194;SDS011;7698;42.478;23.756;2023-10-13T06:09:43;6.95;;;6.35;;
15194;SDS011;7698;42.478;23.756;2023-10-13T06:12:27;6.07;;;5.20;;
15194;SDS011;7698;42.478;23.756;2023-10-13T06:15:11;5.03;;;4.45;;
15194;SDS011;7698;42.478;23.756;2023-10-13T06:17:57;5.82;;;5.32;;
15194;SDS011;7698;42.478;23.756;2023-10-13T06:20:41;7.80;;;6.53;;
15194;SDS011;7698;42.478;23.756;2023-10-13T06:23:25;11.07;;;6.68;;
15194;SDS011;7698;42.478;23.756;2023-10-13T06:26:08;7.78;;;6.00;;
15194;SDS011;7698;42.478;23.756;2023-10-13T06:28:52;8.20;;;6.50;;
15194;SDS011;7698;42.478;23.756;2023-10-13T06:31:19;7.03;;;5.88;;
15194;SDS011;7698;42.478;23.756;2023-10-13T06:33:52;6.30;;;5.50;;
15194;SDS011;7698;42.478;23.756;2023-10-13T06:36:20;5.95;;;5.28;;
15194;SDS011;7698;42.478;23.756;2023-10-13T06:38:47;6.50;;;5.32;;
15194;SDS011;7698;42.478;23.756;2023-10-13T06:41:20;5.05;;;4.63;;
15194;SDS011;7698;42.478;23.756;2023-10-13T06:43:55;5.55;;;5.05;;
15194;SDS011;7698;42.478;23.756;2023-10-13T06:46:28;6.03;;;5.35;;
15194;SDS011;7698;42.478;23.756;2023-10-13T06:49:00;5.60;;;5.10;;
15194;SDS011;7698;42.478;23.756;2023-10-13T06:51:27;5.20;;;4.70;;
15194;SDS011;7698;42.478;23.756;2023-10-13T06:54:03;5.90;;;4.55;;
15194;SDS011;7698;42.478;23.756;2023-10-13T06:56:35;5.68;;;4.70;;
15194;SDS011;7698;42.478;23.756;2023-10-13T06:59:04;4.65;;;4.30;;
15194;SDS011;7698;42.478;23.756;2023-10-13T07:01:32;5.68;;;5.18;;
15194;SDS011;7698;42.478;23.756;2023-10-13T07:04:05;6.03;;;5.03;;
15194;SDS011;7698;42.478;23.756;2023-10-13T07:06:38;6.50;;;5.18;;
15194;SDS011;7698;42.478;23.756;2023-10-13T07:09:07;5.47;;;4.93;;
15194;SDS011;7698;42.478;23.756;2023-10-13T07:11:40;5.20;;;4.70;;
15194;SDS011;7698;42.478;23.756;2023-10-13T07:14:08;5.95;;;5.40;;
15194;SDS011;7698;42.478;23.756;2023-10-13T07:16:42;5.40;;;4.90;;
15194;SDS011;7698;42.478;23.756;2023-10-13T07:19:13;6.20;;;5.43;;
15194;SDS011;7698;42.478;23.756;2023-10-13T07:21:42;7.65;;;5.20;;
15194;SDS011;7698;42.478;23.756;2023-10-13T07:24:10;5.25;;;4.75;;
15194;SDS011;7698;42.478;23.756;2023-10-13T07:26:37;4.95;;;4.18;;
15194;SDS011;7698;42.478;23.756;2023-10-13T07:29:08;5.30;;;4.80;;
15194;SDS011;7698;42.478;23.756;2023-10-13T07:31:34;4.93;;;4.22;;
15194;SDS011;7698;42.478;23.756;2023-10-13T07:34:03;7.60;;;5.38;;
15194;SDS011;7698;42.478;23.756;2023-10-13T07:36:39;7.97;;;6.40;;
15194;SDS011;7698;42.478;23.756;2023-10-13T07:39:06;11.40;;;7.47;;
15194;SDS011;7698;42.478;23.756;2023-10-13T07:41:46;13.95;;;9.15;;
15194;SDS011;7698;42.478;23.756;2023-10-13T07:44:17;9.27;;;7.20;;
15194;SDS011;7698;42.478;23.756;2023-10-13T07:46:45;9.07;;;6.53;;
15194;SDS011;7698;42.478;23.756;2023-10-13T07:49:13;10.82;;;7.22;;
15194;SDS011;7698;42.478;23.756;2023-10-13T07:51:41;10.35;;;7.32;;
15194;SDS011;7698;42.478;23.756;2023-10-13T07:54:10;9.00;;;6.43;;
15194;SDS011;7698;42.478;23.756;2023-10-13T07:56:38;8.10;;;6.30;;
15194;SDS011;7698;42.478;23.756;2023-10-13T07:59:05;6.82;;;6.18;;
15194;SDS011;7698;42.478;23.756;2023-10-13T08:01:34;6.28;;;5.20;;
15194;SDS011;7698;42.478;23.756;2023-10-13T08:04:00;5.85;;;5.25;;
15194;SDS011;7698;42.478;23.756;2023-10-13T08:06:37;9.00;;;5.65;;
15194;SDS011;7698;42.478;23.756;2023-10-13T08:09:07;9.48;;;5.25;;
15194;SDS011;7698;42.478;23.756;2023-10-13T08:11:53;10.90;;;5.40;;
15194;SDS011;7698;42.478;23.756;2023-10-13T08:14:20;9.55;;;6.13;;
15194;SDS011;7698;42.478;23.756;2023-10-13T08:16:54;8.70;;;6.15;;
15194;SDS011;7698;42.478;23.756;2023-10-13T08:19:25;9.00;;;6.72;;
15194;SDS011;7698;42.478;23.756;2023-10-13T08:21:53;8.50;;;6.05;;
15194;SDS011;7698;42.478;23.756;2023-10-13T08:24:24;6.80;;;5.00;;
15194;SDS011;7698;42.478;23.756;2023-10-13T08:27:15;5.63;;;4.60;;
15194;SDS011;7698;42.478;23.756;2023-10-13T08:29:56;6.97;;;5.38;;
15194;SDS011;7698;42.478;23.756;2023-10-13T08:32:40;6.55;;;5.07;;
15194;SDS011;7698;42.478;23.756;2023-10-13T08:35:19;7.72;;;5.82;;
15194;SDS011;7698;42.478;23.756;2023-10-13T08:37:50;6.22;;;4.93;;
15194;SDS011;7698;42.478;23.756;2023-10-13T08:40:30;5.07;;;4.45;;
15194;SDS011;7698;42.478;23.756;2023-10-13T08:43:31;5.88;;;4.78;;
15194;SDS011;7698;42.478;23.756;2023-10-13T08:46:08;4.63;;;4.22;;
15194;SDS011;7698;42.478;23.756;2023-10-13T08:48:35;4.30;;;3.85;;
15194;SDS011;7698;42.478;23.756;2023-10-13T08:51:02;3.80;;;3.47;;
15194;SDS011;7698;42.478;23.756;2023-10-13T08:53:45;4.50;;;3.55;;
15194;SDS011;7698;42.478;23.756;2023-10-13T08:56:18;5.63;;;3.90;;
15194;SDS011;7698;42.478;23.756;2023-10-13T08:58:58;4.90;;;3.60;;
15194;SDS011;7698;42.478;23.756;2023-10-13T09:01:31;7.55;;;4.53;;
15194;SDS011;7698;42.478;23.756;2023-10-13T09:04:03;4.05;;;3.65;;
15194;SDS011;7698;42.478;23.756;2023-10-13T09:06:44;3.83;;;3.20;;
15194;SDS011;7698;42.478;23.756;2023-10-13T09:09:12;3.70;;;3.15;;
15194;SDS011;7698;42.478;23.756;2023-10-13T09:11:53;3.47;;;3.10;;
15194;SDS011;7698;42.478;23.756;2023-10-13T09:14:33;5.35;;;3.67;;
15194;SDS011;7698;42.478;23.756;2023-10-13T09:17:01;4.47;;;3.60;;
15194;SDS011;7698;42.478;23.756;2023-10-13T09:19:42;3.25;;;2.92;;
15194;SDS011;7698;42.478;23.756;2023-10-13T09:22:19;3.42;;;2.97;;
15194;SDS011;7698;42.478;23.756;2023-10-13T09:24:50;5.03;;;3.20;;
15194;SDS011;7698;42.478;23.756;2023-10-13T09:27:18;3.42;;;3.13;;
15194;SDS011;7698;42.478;23.756;2023-10-13T09:29:54;6.03;;;3.40;;
15194;SDS011;7698;42.478;23.756;2023-10-13T09:32:19;4.57;;;3.65;;
15194;SDS011;7698;42.478;23.756;2023-10-13T09:34:46;4.68;;;3.50;;
15194;SDS011;7698;42.478;23.756;2023-10-13T09:37:16;2.97;;;2.55;;
15194;SDS011;7698;42.478;23.756;2023-10-13T09:39:46;3.10;;;2.88;;
15194;SDS011;7698;42.478;23.756;2023-10-13T09:42:16;4.82;;;3.17;;
15194;SDS011;7698;42.478;23.756;2023-10-13T09:44:45;2.95;;;2.50;;
15194;SDS011;7698;42.478;23.756;2023-10-13T09:47:17;3.28;;;2.97;;
15194;SDS011;7698;42.478;23.756;2023-10-13T09:49:49;2.95;;;2.75;;
15194;SDS011;7698;42.478;23.756;2023-10-13T09:52:17;3.80;;;2.72;;
15194;SDS011;7698;42.478;23.756;2023-10-13T09:54:55;3.00;;;2.42;;
15194;SDS011;7698;42.478;23.756;2023-10-13T09:57:26;3.53;;;2.30;;
15194;SDS011;7698;42.478;23.756;2023-10-13T09:59:57;2.83;;;2.20;;
15194;SDS011;7698;42.478;23.756;2023-10-13T10:02:32;2.42;;;2.22;;
15194;SDS011;7698;42.478;23.756;2023-10-13T10:05:00;2.67;;;2.15;;
15194;SDS011;7698;42.478;23.756;2023-10-13T10:07:53;4.22;;;2.30;;
15194;SDS011;7698;42.478;23.756;2023-10-13T10:10:20;3.40;;;3.03;;
15194;SDS011;7698;42.478;23.756;2023-10-13T10:12:48;4.13;;;2.80;;
15194;SDS011;7698;42.478;23.756;2023-10-13T10:15:20;3.70;;;2.78;;
15194;SDS011;7698;42.478;23.756;2023-10-13T10:17:53;3.78;;;2.65;;
15194;SDS011;7698;42.478;23.756;2023-10-13T10:20:27;2.95;;;2.65;;
15194;SDS011;7698;42.478;23.756;2023-10-13T10:22:58;4.15;;;2.65;;
15194;SDS011;7698;42.478;23.756;2023-10-13T10:25:29;5.18;;;2.65;;
15194;SDS011;7698;42.478;23.756;2023-10-13T10:28:00;2.33;;;2.10;;
15194;SDS011;7698;42.478;23.756;2023-10-13T10:30:32;2.70;;;2.15;;
15194;SDS011;7698;42.478;23.756;2023-10-13T10:33:00;4.18;;;2.20;;
15194;SDS011;7698;42.478;23.756;2023-10-13T10:35:32;3.60;;;2.47;;
15194;SDS011;7698;42.478;23.756;2023-10-13T10:38:06;3.08;;;2.33;;
15194;SDS011;7698;42.478;23.756;2023-10-13T10:40:47;3.28;;;2.60;;
15194;SDS011;7698;42.478;23.756;2023-10-13T10:43:16;5.03;;;2.83;;
15194;SDS011;7698;42.478;23.756;2023-10-13T10:45:47;4.05;;;2.88;;
15194;SDS011;7698;42.478;23.756;2023-10-13T10:48:16;2.42;;;2.22;;
15194;SDS011;7698;42.478;23.756;2023-10-13T10:50:51;4.18;;;2.75;;
15194;SDS011;7698;42.478;23.756;2023-10-13T10:53:19;2.80;;;2.40;;
15194;SDS011;7698;42.478;23.756;2023-10-13T10:55:47;4.22;;;2.70;;
15194;SDS011;7698;42.478;23.756;2023-10-13T10:58:14;3.47;;;2.78;;
15194;SDS011;7698;42.478;23.756;2023-10-13T11:01:05;2.33;;;2.05;;
15194;SDS011;7698;42.478;23.756;2023-10-13T11:03:36;3.53;;;2.25;;
15194;SDS011;7698;42.478;23.756;2023-10-13T11:06:07;3.90;;;2.20;;
15194;SDS011;7698;42.478;23.756;2023-10-13T11:08:42;3.13;;;2.20;;
15194;SDS011;7698;42.478;23.756;2023-10-13T11:11:16;3.88;;;2.60;;
15194;SDS011;7698;42.478;23.756;2023-10-13T11:13:44;4.35;;;2.67;;
15194;SDS011;7698;42.478;23.756;2023-10-13T11:16:22;2.35;;;1.92;;
15194;SDS011;7698;42.478;23.756;2023-10-13T11:18:59;3.80;;;2.40;;
15194;SDS011;7698;42.478;23.756;2023-10-13T11:21:28;2.33;;;2.13;;
15194;SDS011;7698;42.478;23.756;2023-10-13T11:23:56;2.55;;;2.20;;
15194;SDS011;7698;42.478;23.756;2023-10-13T11:26:32;4.25;;;2.60;;
15194;SDS011;7698;42.478;23.756;2023-10-13T11:28:59;3.42;;;2.20;;
15194;SDS011;7698;42.478;23.756;2023-10-13T11:31:31;2.53;;;1.98;;
15194;SDS011;7698;42.478;23.756;2023-10-13T11:33:58;1.98;;;1.80;;
15194;SDS011;7698;42.478;23.756;2023-10-13T11:36:27;2.08;;;1.75;;
15194;SDS011;7698;42.478;23.756;2023-10-13T11:38:58;2.38;;;2.17;;
15194;SDS011;7698;42.478;23.756;2023-10-13T11:41:25;3.97;;;2.10;;
15194;SDS011;7698;42.478;23.756;2023-10-13T11:43:58;3.08;;;2.25;;
15194;SDS011;7698;42.478;23.756;2023-10-13T11:46:46;1.65;;;1.55;;
15194;SDS011;7698;42.478;23.756;2023-10-13T11:49:22;1.90;;;1.45;;
15194;SDS011;7698;42.478;23.756;2023-10-13T11:51:59;2.10;;;1.48;;
15194;SDS011;7698;42.478;23.756;2023-10-13T11:54:41;10.73;;;2.40;;
15194;SDS011;7698;42.478;23.756;2023-10-13T11:57:08;3.10;;;1.92;;
15194;SDS011;7698;42.478;23.756;2023-10-13T11:59:35;3.10;;;1.52;;
15194;SDS011;7698;42.478;23.756;2023-10-13T12:02:11;1.83;;;1.50;;
15194;SDS011;7698;42.478;23.756;2023-10-13T12:04:55;1.92;;;1.70;;
15194;SDS011;7698;42.478;23.756;2023-10-13T12:07:24;1.25;;;1.15;;
15194;SDS011;7698;42.478;23.756;2023-10-13T12:09:52;1.95;;;1.65;;
15194;SDS011;7698;42.478;23.756;2023-10-13T12:12:31;1.88;;;1.65;;
15194;SDS011;7698;42.478;23.756;2023-10-13T12:15:05;2.88;;;1.63;;
15194;SDS011;7698;42.478;23.756;2023-10-13T12:17:40;3.17;;;1.90;;
15194;SDS011;7698;42.478;23.756;2023-10-13T12:20:10;2.90;;;1.60;;
15194;SDS011;7698;42.478;23.756;2023-10-13T12:22:43;1.98;;;1.48;;
15194;SDS011;7698;42.478;23.756;2023-10-13T12:25:20;3.83;;;1.67;;
15194;SDS011;7698;42.478;23.756;2023-10-13T12:27:50;2.30;;;1.67;;
15194;SDS011;7698;42.478;23.756;2023-10-13T12:30:21;2.50;;;1.67;;
15194;SDS011;7698;42.478;23.756;2023-10-13T12:33:02;2.03;;;1.60;;
15194;SDS011;7698;42.478;23.756;2023-10-13T12:35:34;3.50;;;1.83;;
15194;SDS011;7698;42.478;23.756;2023-10-13T12:38:10;2.17;;;1.75;;
15194;SDS011;7698;42.478;23.756;2023-10-13T12:41:01;2.80;;;1.52;;
15194;SDS011;7698;42.478;23.756;2023-10-13T12:43:59;2.60;;;1.60;;
15194;SDS011;7698;42.478;23.756;2023-10-13T12:46:49;2.97;;;1.52;;
15194;SDS011;7698;42.478;23.756;2023-10-13T12:49:35;1.73;;;1.60;;
15194;SDS011;7698;42.478;23.756;2023-10-13T12:52:23;3.53;;;1.75;;
15194;SDS011;7698;42.478;23.756;2023-10-13T12:54:51;2.10;;;1.77;;
15194;SDS011;7698;42.478;23.756;2023-10-13T12:57:26;2.70;;;1.80;;
15194;SDS011;7698;42.478;23.756;2023-10-13T12:59:53;4.75;;;1.60;;
15194;SDS011;7698;42.478;23.756;2023-10-13T13:02:20;3.22;;;1.60;;
15194;SDS011;7698;42.478;23.756;2023-10-13T13:04:48;2.42;;;1.90;;
15194;SDS011;7698;42.478;23.756;2023-10-13T13:07:19;4.53;;;2.35;;
15194;SDS011;7698;42.478;23.756;2023-10-13T13:09:46;3.35;;;1.92;;
15194;SDS011;7698;42.478;23.756;2023-10-13T13:12:13;3.35;;;1.90;;
15194;SDS011;7698;42.478;23.756;2023-10-13T13:14:41;2.22;;;2.03;;
15194;SDS011;7698;42.478;23.756;2023-10-13T13:17:11;3.60;;;2.08;;
15194;SDS011;7698;42.478;23.756;2023-10-13T13:19:38;3.72;;;2.17;;
15194;SDS011;7698;42.478;23.756;2023-10-13T13:22:06;1.88;;;1.67;;
15194;SDS011;7698;42.478;23.756;2023-10-13T13:24:37;2.33;;;1.92;;
15194;SDS011;7698;42.478;23.756;2023-10-13T13:27:08;2.53;;;1.88;;
15194;SDS011;7698;42.478;23.756;2023-10-13T13:29:38;2.75;;;2.00;;
15194;SDS011;7698;42.478;23.756;2023-10-13T13:32:05;2.97;;;2.00;;
15194;SDS011;7698;42.478;23.756;2023-10-13T13:34:42;3.55;;;2.03;;
15194;SDS011;7698;42.478;23.756;2023-10-13T13:37:10;2.10;;;1.52;;
15194;SDS011;7698;42.478;23.756;2023-10-13T13:39:38;3.28;;;1.83;;
15194;SDS011;7698;42.478;23.756;2023-10-13T13:42:08;1.98;;;1.58;;
15194;SDS011;7698;42.478;23.756;2023-10-13T13:44:35;2.22;;;1.65;;
15194;SDS011;7698;42.478;23.756;2023-10-13T13:47:03;1.77;;;1.50;;
15194;SDS011;7698;42.478;23.756;2023-10-13T13:49:37;2.67;;;1.40;;
15194;SDS011;7698;42.478;23.756;2023-10-13T13:52:06;3.58;;;1.50;;
15194;SDS011;7698;42.478;23.756;2023-10-13T13:54:34;1.88;;;1.27;;
15194;SDS011;7698;42.478;23.756;2023-10-13T13:57:00;2.53;;;1.27;;
15194;SDS011;7698;42.478;23.756;2023-10-13T13:59:27;3.40;;;1.48;;
15194;SDS011;7698;42.478;23.756;2023-10-13T14:01:59;2.90;;;1.30;;
15194;SDS011;7698;42.478;23.756;2023-10-13T14:04:28;1.63;;;1.45;;
15194;SDS011;7698;42.478;23.756;2023-10-13T14:06:56;1.70;;;1.52;;
15194;SDS011;7698;42.478;23.756;2023-10-13T14:09:23;3.03;;;1.35;;
15194;SDS011;7698;42.478;23.756;2023-10-13T14:12:02;1.23;;;1.13;;
15194;SDS011;7698;42.478;23.756;2023-10-13T14:14:51;2.53;;;1.40;;
15194;SDS011;7698;42.478;23.756;2023-10-13T14:17:22;2.75;;;1.25;;
15194;SDS011;7698;42.478;23.756;2023-10-13T14:19:54;1.48;;;1.10;;
15194;SDS011;7698;42.478;23.756;2023-10-13T14:22:21;2.08;;;1.17;;
15194;SDS011;7698;42.478;23.756;2023-10-13T14:24:50;1.73;;;1.33;;
15194;SDS011;7698;42.478;23.756;2023-10-13T14:27:21;2.47;;;1.30;;
15194;SDS011;7698;42.478;23.756;2023-10-13T14:29:48;1.42;;;1.33;;
15194;SDS011;7698;42.478;23.756;2023-10-13T14:32:18;1.80;;;1.10;;
15194;SDS011;7698;42.478;23.756;2023-10-13T14:34:49;2.55;;;1.38;;
15194;SDS011;7698;42.478;23.756;2023-10-13T14:37:19;1.52;;;1.20;;
15194;SDS011;7698;42.478;23.756;2023-10-13T14:39:51;1.70;;;1.20;;
15194;SDS011;7698;42.478;23.756;2023-10-13T14:42:23;1.75;;;1.30;;
15194;SDS011;7698;42.478;23.756;2023-10-13T14:44:49;3.95;;;1.30;;
15194;SDS011;7698;42.478;23.756;2023-10-13T14:47:20;1.40;;;1.15;;
15194;SDS011;7698;42.478;23.756;2023-10-13T14:49:50;1.40;;;1.10;;
15194;SDS011;7698;42.478;23.756;2023-10-13T14:52:19;1.60;;;1.45;;
15194;SDS011;7698;42.478;23.756;2023-10-13T14:54:46;2.25;;;1.48;;
15194;SDS011;7698;42.478;23.756;2023-10-13T14:57:13;1.73;;;1.40;;
15194;SDS011;7698;42.478;23.756;2023-10-13T14:59:41;3.28;;;1.40;;
15194;SDS011;7698;42.478;23.756;2023-10-13T15:02:09;2.03;;;1.45;;
15194;SDS011;7698;42.478;23.756;2023-10-13T15:04:36;2.58;;;1.08;;
15194;SDS011;7698;42.478;23.756;2023-10-13T15:07:03;3.30;;;1.42;;
15194;SDS011;7698;42.478;23.756;2023-10-13T15:09:29;1.50;;;1.30;;
15194;SDS011;7698;42.478;23.756;2023-10-13T15:11:56;2.85;;;1.92;;
15194;SDS011;7698;42.478;23.756;2023-10-13T15:14:23;3.05;;;1.50;;